sensor_id;sensor_type;location;lat;lon;timestamp;temperature;humidity
7502;DHT22;3792;47.740;7.606;2023-03-21T00:00:37;7.50;99.90
7502;DHT22;3792;47.740;7.606;2023-03-21T00:03:04;7.40;99.90
7502;DHT22;3792;47.740;7.606;2023-03-21T00:05:32;7.30;99.90
7502;DHT22;3792;47.740;7.606;2023-03-21T00:08:00;7.30;99.90
7502;DHT22;3792;47.740;7.606;2023-03-21T00:10:27;7.40;99.90
7502;DHT22;3792;47.740;7.606;2023-03-21T00:12:54;7.40;99.90
7502;DHT22;3792;47.740;7.606;2023-03-21T00:15:24;7.40;99.90
7502;DHT22;3792;47.740;7.606;2023-03-21T00:17:53;7.30;99.90
7502;DHT22;3792;47.740;7.606;2023-03-21T00:20:23;7.20;99.90
7502;DHT22;3792;47.740;7.606;2023-03-21T00:22:51;7.20;99.90
7502;DHT22;3792;47.740;7.606;2023-03-21T00:25:18;7.20;99.90
7502;DHT22;3792;47.740;7.606;2023-03-21T00:27:45;7.20;99.90
7502;DHT22;3792;47.740;7.606;2023-03-21T00:30:14;7.20;99.90
7502;DHT22;3792;47.740;7.606;2023-03-21T00:32:41;7.20;99.90
7502;DHT22;3792;47.740;7.606;2023-03-21T00:35:09;7.20;99.90
7502;DHT22;3792;47.740;7.606;2023-03-21T00:37:36;7.10;99.90
7502;DHT22;3792;47.740;7.606;2023-03-21T00:40:06;7.10;99.90
7502;DHT22;3792;47.740;7.606;2023-03-21T00:42:35;7.10;99.90
7502;DHT22;3792;47.740;7.606;2023-03-21T00:45:03;7.10;99.90
7502;DHT22;3792;47.740;7.606;2023-03-21T00:47:31;7.10;99.90
7502;DHT22;3792;47.740;7.606;2023-03-21T00:49:58;7.00;99.90
7502;DHT22;3792;47.740;7.606;2023-03-21T00:52:25;7.00;99.90
7502;DHT22;3792;47.740;7.606;2023-03-21T00:54:52;7.00;99.90
7502;DHT22;3792;47.740;7.606;2023-03-21T00:57:20;7.00;99.90
7502;DHT22;3792;47.740;7.606;2023-03-21T00:59:47;6.90;99.90
7502;DHT22;3792;47.740;7.606;2023-03-21T01:02:14;7.00;99.90
7502;DHT22;3792;47.740;7.606;2023-03-21T01:04:47;7.00;99.90
7502;DHT22;3792;47.740;7.606;2023-03-21T01:07:14;7.00;99.90
7502;DHT22;3792;47.740;7.606;2023-03-21T01:09:41;6.90;99.90
7502;DHT22;3792;47.740;7.606;2023-03-21T01:12:08;6.80;99.90
7502;DHT22;3792;47.740;7.606;2023-03-21T01:14:37;6.80;99.90
7502;DHT22;3792;47.740;7.606;2023-03-21T01:17:04;6.80;99.90
7502;DHT22;3792;47.740;7.606;2023-03-21T01:19:32;6.70;99.90
7502;DHT22;3792;47.740;7.606;2023-03-21T01:21:59;6.70;99.90
7502;DHT22;3792;47.740;7.606;2023-03-21T01:24:26;6.60;99.90
7502;DHT22;3792;47.740;7.606;2023-03-21T01:26:53;6.60;99.90
7502;DHT22;3792;47.740;7.606;2023-03-21T01:29:20;6.50;99.90
7502;DHT22;3792;47.740;7.606;2023-03-21T01:31:48;6.50;99.90
7502;DHT22;3792;47.740;7.606;2023-03-21T01:34:15;6.50;99.90
7502;DHT22;3792;47.740;7.606;2023-03-21T01:36:42;6.60;99.90
7502;DHT22;3792;47.740;7.606;2023-03-21T01:39:09;6.60;99.90
7502;DHT22;3792;47.740;7.606;2023-03-21T01:41:39;6.60;99.90
7502;DHT22;3792;47.740;7.606;2023-03-21T01:44:06;6.50;99.90
7502;DHT22;3792;47.740;7.606;2023-03-21T01:46:40;6.50;99.90
7502;DHT22;3792;47.740;7.606;2023-03-21T01:49:13;6.50;99.90
7502;DHT22;3792;47.740;7.606;2023-03-21T01:51:44;6.50;99.90
7502;DHT22;3792;47.740;7.606;2023-03-21T01:54:14;6.30;99.90
7502;DHT22;3792;47.740;7.606;2023-03-21T01:56:44;6.30;99.90
7502;DHT22;3792;47.740;7.606;2023-03-21T01:59:18;6.30;99.90
7502;DHT22;3792;47.740;7.606;2023-03-21T02:01:48;6.30;99.90
7502;DHT22;3792;47.740;7.606;2023-03-21T02:04:17;6.30;99.90
7502;DHT22;3792;47.740;7.606;2023-03-21T02:06:56;6.30;99.90
7502;DHT22;3792;47.740;7.606;2023-03-21T02:09:27;6.30;99.90
7502;DHT22;3792;47.740;7.606;2023-03-21T02:11:57;6.20;99.90
7502;DHT22;3792;47.740;7.606;2023-03-21T02:14:25;6.20;99.90
7502;DHT22;3792;47.740;7.606;2023-03-21T02:16:59;6.20;99.90
7502;DHT22;3792;47.740;7.606;2023-03-21T02:23:00;6.20;99.90
7502;DHT22;3792;47.740;7.606;2023-03-21T02:25:55;6.10;99.90
7502;DHT22;3792;47.740;7.606;2023-03-21T02:28:29;6.10;99.90
7502;DHT22;3792;47.740;7.606;2023-03-21T02:31:23;6.10;99.90
7502;DHT22;3792;47.740;7.606;2023-03-21T02:34:40;6.10;99.90
7502;DHT22;3792;47.740;7.606;2023-03-21T02:37:20;6.10;99.90
7502;DHT22;3792;47.740;7.606;2023-03-21T02:39:59;6.20;99.90
7502;DHT22;3792;47.740;7.606;2023-03-21T02:42:40;6.20;99.90
7502;DHT22;3792;47.740;7.606;2023-03-21T02:45:15;6.10;99.90
7502;DHT22;3792;47.740;7.606;2023-03-21T02:47:45;6.00;99.90
7502;DHT22;3792;47.740;7.606;2023-03-21T02:50:17;6.00;99.90
7502;DHT22;3792;47.740;7.606;2023-03-21T02:52:47;5.90;99.90
7502;DHT22;3792;47.740;7.606;2023-03-21T02:55:21;5.80;99.90
7502;DHT22;3792;47.740;7.606;2023-03-21T02:57:52;5.60;99.90
7502;DHT22;3792;47.740;7.606;2023-03-21T03:00:22;5.40;99.90
7502;DHT22;3792;47.740;7.606;2023-03-21T03:02:50;5.30;99.90
7502;DHT22;3792;47.740;7.606;2023-03-21T03:05:20;5.30;99.90
7502;DHT22;3792;47.740;7.606;2023-03-21T03:08:09;5.40;99.90
7502;DHT22;3792;47.740;7.606;2023-03-21T03:10:52;5.50;99.90
7502;DHT22;3792;47.740;7.606;2023-03-21T03:13:32;5.50;99.90
7502;DHT22;3792;47.740;7.606;2023-03-21T03:16:11;5.50;99.90
7502;DHT22;3792;47.740;7.606;2023-03-21T03:18:47;5.50;99.90
7502;DHT22;3792;47.740;7.606;2023-03-21T03:21:18;5.50;99.90
7502;DHT22;3792;47.740;7.606;2023-03-21T03:23:49;5.40;99.90
7502;DHT22;3792;47.740;7.606;2023-03-21T03:26:22;5.40;99.90
7502;DHT22;3792;47.740;7.606;2023-03-21T03:28:53;5.50;99.90
7502;DHT22;3792;47.740;7.606;2023-03-21T03:31:26;5.10;99.90
7502;DHT22;3792;47.740;7.606;2023-03-21T03:33:58;4.90;99.90
7502;DHT22;3792;47.740;7.606;2023-03-21T03:36:29;5.00;99.90
7502;DHT22;3792;47.740;7.606;2023-03-21T03:39:04;5.10;99.90
7502;DHT22;3792;47.740;7.606;2023-03-21T03:41:36;5.20;99.90
7502;DHT22;3792;47.740;7.606;2023-03-21T03:44:06;5.30;99.90
7502;DHT22;3792;47.740;7.606;2023-03-21T03:46:37;5.30;99.90
7502;DHT22;3792;47.740;7.606;2023-03-21T03:49:09;5.30;99.90
7502;DHT22;3792;47.740;7.606;2023-03-21T03:51:42;5.40;99.90
7502;DHT22;3792;47.740;7.606;2023-03-21T03:54:15;5.50;99.90
7502;DHT22;3792;47.740;7.606;2023-03-21T03:56:43;5.60;99.90
7502;DHT22;3792;47.740;7.606;2023-03-21T03:59:11;5.60;99.90
7502;DHT22;3792;47.740;7.606;2023-03-21T04:01:44;5.60;99.90
7502;DHT22;3792;47.740;7.606;2023-03-21T04:04:11;5.70;99.90
7502;DHT22;3792;47.740;7.606;2023-03-21T04:06:41;5.70;99.90
7502;DHT22;3792;47.740;7.606;2023-03-21T04:09:10;5.70;99.90
7502;DHT22;3792;47.740;7.606;2023-03-21T04:11:39;5.80;99.90
7502;DHT22;3792;47.740;7.606;2023-03-21T04:14:06;5.80;99.90
7502;DHT22;3792;47.740;7.606;2023-03-21T04:16:33;5.80;99.90
7502;DHT22;3792;47.740;7.606;2023-03-21T04:19:00;5.80;99.90
7502;DHT22;3792;47.740;7.606;2023-03-21T04:21:28;5.70;99.90
7502;DHT22;3792;47.740;7.606;2023-03-21T04:23:56;5.60;99.90
7502;DHT22;3792;47.740;7.606;2023-03-21T04:26:23;5.60;99.90
7502;DHT22;3792;47.740;7.606;2023-03-21T04:28:51;5.50;99.90
7502;DHT22;3792;47.740;7.606;2023-03-21T04:31:18;5.50;99.90
7502;DHT22;3792;47.740;7.606;2023-03-21T04:33:45;5.50;99.90
7502;DHT22;3792;47.740;7.606;2023-03-21T04:36:14;5.40;99.90
7502;DHT22;3792;47.740;7.606;2023-03-21T04:38:51;5.40;99.90
7502;DHT22;3792;47.740;7.606;2023-03-21T04:41:18;5.30;99.90
7502;DHT22;3792;47.740;7.606;2023-03-21T04:43:45;5.30;99.90
7502;DHT22;3792;47.740;7.606;2023-03-21T04:46:14;5.30;99.90
7502;DHT22;3792;47.740;7.606;2023-03-21T04:48:41;5.20;99.90
7502;DHT22;3792;47.740;7.606;2023-03-21T04:51:08;5.30;99.90
7502;DHT22;3792;47.740;7.606;2023-03-21T04:53:35;5.40;99.90
7502;DHT22;3792;47.740;7.606;2023-03-21T04:56:04;5.30;99.90
7502;DHT22;3792;47.740;7.606;2023-03-21T04:58:32;5.40;99.90
7502;DHT22;3792;47.740;7.606;2023-03-21T05:00:59;5.30;99.90
7502;DHT22;3792;47.740;7.606;2023-03-21T05:03:28;5.30;99.90
7502;DHT22;3792;47.740;7.606;2023-03-21T05:05:59;5.40;99.90
7502;DHT22;3792;47.740;7.606;2023-03-21T05:08:27;5.40;99.90
7502;DHT22;3792;47.740;7.606;2023-03-21T05:10:54;5.30;99.90
7502;DHT22;3792;47.740;7.606;2023-03-21T05:13:21;5.30;99.90
7502;DHT22;3792;47.740;7.606;2023-03-21T05:15:48;5.30;99.90
7502;DHT22;3792;47.740;7.606;2023-03-21T05:18:15;5.30;99.90
7502;DHT22;3792;47.740;7.606;2023-03-21T05:20:51;5.30;99.90
7502;DHT22;3792;47.740;7.606;2023-03-21T05:23:20;5.30;99.90
7502;DHT22;3792;47.740;7.606;2023-03-21T05:25:47;5.40;99.90
7502;DHT22;3792;47.740;7.606;2023-03-21T05:28:15;5.40;99.90
7502;DHT22;3792;47.740;7.606;2023-03-21T05:30:43;5.40;99.90
7502;DHT22;3792;47.740;7.606;2023-03-21T05:33:11;5.40;99.90
7502;DHT22;3792;47.740;7.606;2023-03-21T05:35:38;5.40;99.90
7502;DHT22;3792;47.740;7.606;2023-03-21T05:38:06;5.30;99.90
7502;DHT22;3792;47.740;7.606;2023-03-21T05:40:34;5.40;99.90
7502;DHT22;3792;47.740;7.606;2023-03-21T05:43:01;5.40;99.90
7502;DHT22;3792;47.740;7.606;2023-03-21T05:45:28;5.40;99.90
7502;DHT22;3792;47.740;7.606;2023-03-21T05:47:55;5.40;99.90
7502;DHT22;3792;47.740;7.606;2023-03-21T05:50:22;5.30;99.90
7502;DHT22;3792;47.740;7.606;2023-03-21T05:52:49;5.40;99.90
7502;DHT22;3792;47.740;7.606;2023-03-21T05:55:18;5.40;99.90
7502;DHT22;3792;47.740;7.606;2023-03-21T05:57:45;5.30;99.90
7502;DHT22;3792;47.740;7.606;2023-03-21T06:00:13;5.30;99.90
7502;DHT22;3792;47.740;7.606;2023-03-21T06:02:40;5.30;99.90
7502;DHT22;3792;47.740;7.606;2023-03-21T06:05:08;5.30;99.90
7502;DHT22;3792;47.740;7.606;2023-03-21T06:07:35;5.30;99.90
7502;DHT22;3792;47.740;7.606;2023-03-21T06:10:03;5.10;99.90
7502;DHT22;3792;47.740;7.606;2023-03-21T06:12:32;5.20;99.90
7502;DHT22;3792;47.740;7.606;2023-03-21T06:14:59;5.20;99.90
7502;DHT22;3792;47.740;7.606;2023-03-21T06:17:26;5.10;99.90
7502;DHT22;3792;47.740;7.606;2023-03-21T06:19:53;5.20;99.90
7502;DHT22;3792;47.740;7.606;2023-03-21T06:22:21;5.30;99.90
7502;DHT22;3792;47.740;7.606;2023-03-21T06:24:48;5.40;99.90
7502;DHT22;3792;47.740;7.606;2023-03-21T06:27:15;5.50;99.90
7502;DHT22;3792;47.740;7.606;2023-03-21T06:29:43;5.60;99.90
7502;DHT22;3792;47.740;7.606;2023-03-21T06:32:11;5.90;99.90
7502;DHT22;3792;47.740;7.606;2023-03-21T06:34:38;6.10;99.90
7502;DHT22;3792;47.740;7.606;2023-03-21T06:37:06;6.40;99.90
7502;DHT22;3792;47.740;7.606;2023-03-21T06:39:33;6.70;99.90
7502;DHT22;3792;47.740;7.606;2023-03-21T06:42:00;7.00;99.90
7502;DHT22;3792;47.740;7.606;2023-03-21T06:44:28;7.10;99.90
7502;DHT22;3792;47.740;7.606;2023-03-21T06:46:56;6.90;99.90
7502;DHT22;3792;47.740;7.606;2023-03-21T06:49:23;7.00;99.90
7502;DHT22;3792;47.740;7.606;2023-03-21T06:51:51;7.10;99.90
7502;DHT22;3792;47.740;7.606;2023-03-21T06:54:19;7.30;99.90
7502;DHT22;3792;47.740;7.606;2023-03-21T06:56:46;7.50;99.90
7502;DHT22;3792;47.740;7.606;2023-03-21T06:59:13;7.70;99.90
7502;DHT22;3792;47.740;7.606;2023-03-21T07:01:40;7.80;99.90
7502;DHT22;3792;47.740;7.606;2023-03-21T07:04:09;7.90;99.90
7502;DHT22;3792;47.740;7.606;2023-03-21T07:06:37;8.10;99.90
7502;DHT22;3792;47.740;7.606;2023-03-21T07:09:05;8.10;99.90
7502;DHT22;3792;47.740;7.606;2023-03-21T07:11:33;8.10;99.90
7502;DHT22;3792;47.740;7.606;2023-03-21T07:14:00;8.30;99.90
7502;DHT22;3792;47.740;7.606;2023-03-21T07:16:27;8.50;99.90
7502;DHT22;3792;47.740;7.606;2023-03-21T07:18:54;8.60;99.90
7502;DHT22;3792;47.740;7.606;2023-03-21T07:21:23;8.70;99.90
7502;DHT22;3792;47.740;7.606;2023-03-21T07:23:50;8.80;99.90
7502;DHT22;3792;47.740;7.606;2023-03-21T07:26:18;8.70;99.90
7502;DHT22;3792;47.740;7.606;2023-03-21T07:28:45;8.80;99.90
7502;DHT22;3792;47.740;7.606;2023-03-21T07:31:14;8.90;99.90
7502;DHT22;3792;47.740;7.606;2023-03-21T07:33:41;9.00;99.90
7502;DHT22;3792;47.740;7.606;2023-03-21T07:36:10;9.10;99.90
7502;DHT22;3792;47.740;7.606;2023-03-21T07:38:41;9.10;99.90
7502;DHT22;3792;47.740;7.606;2023-03-21T07:41:08;9.10;99.90
7502;DHT22;3792;47.740;7.606;2023-03-21T07:43:35;9.10;99.90
7502;DHT22;3792;47.740;7.606;2023-03-21T07:46:03;9.10;99.90
7502;DHT22;3792;47.740;7.606;2023-03-21T07:48:30;9.10;99.90
7502;DHT22;3792;47.740;7.606;2023-03-21T07:50:57;9.20;99.90
7502;DHT22;3792;47.740;7.606;2023-03-21T07:53:24;9.10;99.90
7502;DHT22;3792;47.740;7.606;2023-03-21T07:55:53;9.20;99.90
7502;DHT22;3792;47.740;7.606;2023-03-21T07:58:21;9.30;99.90
7502;DHT22;3792;47.740;7.606;2023-03-21T08:00:48;9.40;99.90
7502;DHT22;3792;47.740;7.606;2023-03-21T08:03:15;9.50;99.90
7502;DHT22;3792;47.740;7.606;2023-03-21T08:05:42;9.60;99.90
7502;DHT22;3792;47.740;7.606;2023-03-21T08:08:10;9.60;99.90
7502;DHT22;3792;47.740;7.606;2023-03-21T08:10:37;9.70;99.90
7502;DHT22;3792;47.740;7.606;2023-03-21T08:13:05;9.70;99.90
7502;DHT22;3792;47.740;7.606;2023-03-21T08:15:32;9.80;99.90
7502;DHT22;3792;47.740;7.606;2023-03-21T08:18:00;9.90;99.90
7502;DHT22;3792;47.740;7.606;2023-03-21T08:20:27;10.00;99.90
7502;DHT22;3792;47.740;7.606;2023-03-21T08:22:54;9.90;99.90
7502;DHT22;3792;47.740;7.606;2023-03-21T08:25:21;10.10;99.90
7502;DHT22;3792;47.740;7.606;2023-03-21T08:27:49;10.10;99.90
7502;DHT22;3792;47.740;7.606;2023-03-21T08:30:19;10.20;99.90
7502;DHT22;3792;47.740;7.606;2023-03-21T08:32:47;10.20;99.90
7502;DHT22;3792;47.740;7.606;2023-03-21T08:35:16;10.30;99.90
7502;DHT22;3792;47.740;7.606;2023-03-21T08:37:43;10.30;99.90
7502;DHT22;3792;47.740;7.606;2023-03-21T08:40:13;10.30;99.90
7502;DHT22;3792;47.740;7.606;2023-03-21T08:42:40;10.30;99.90
7502;DHT22;3792;47.740;7.606;2023-03-21T08:45:08;10.30;99.90
7502;DHT22;3792;47.740;7.606;2023-03-21T08:47:37;10.40;99.90
7502;DHT22;3792;47.740;7.606;2023-03-21T08:50:06;10.40;99.90
7502;DHT22;3792;47.740;7.606;2023-03-21T08:52:33;10.60;99.90
7502;DHT22;3792;47.740;7.606;2023-03-21T08:55:02;10.40;99.90
7502;DHT22;3792;47.740;7.606;2023-03-21T08:57:29;10.40;99.90
7502;DHT22;3792;47.740;7.606;2023-03-21T08:59:56;10.50;99.90
7502;DHT22;3792;47.740;7.606;2023-03-21T09:02:23;10.50;99.90
7502;DHT22;3792;47.740;7.606;2023-03-21T09:04:51;10.60;99.90
7502;DHT22;3792;47.740;7.606;2023-03-21T09:07:20;10.70;99.90
7502;DHT22;3792;47.740;7.606;2023-03-21T09:09:51;10.70;99.90
7502;DHT22;3792;47.740;7.606;2023-03-21T09:12:18;10.90;99.90
7502;DHT22;3792;47.740;7.606;2023-03-21T09:14:45;11.00;99.90
7502;DHT22;3792;47.740;7.606;2023-03-21T09:17:12;11.20;99.90
7502;DHT22;3792;47.740;7.606;2023-03-21T09:19:39;11.20;99.90
7502;DHT22;3792;47.740;7.606;2023-03-21T09:22:08;11.30;99.90
7502;DHT22;3792;47.740;7.606;2023-03-21T09:24:39;11.30;99.90
7502;DHT22;3792;47.740;7.606;2023-03-21T09:27:06;11.30;99.90
7502;DHT22;3792;47.740;7.606;2023-03-21T09:29:33;11.30;99.90
7502;DHT22;3792;47.740;7.606;2023-03-21T09:32:00;11.50;99.90
7502;DHT22;3792;47.740;7.606;2023-03-21T09:34:28;11.70;99.90
7502;DHT22;3792;47.740;7.606;2023-03-21T09:36:56;11.80;99.90
7502;DHT22;3792;47.740;7.606;2023-03-21T09:39:26;11.90;99.90
7502;DHT22;3792;47.740;7.606;2023-03-21T09:42:03;12.20;99.90
7502;DHT22;3792;47.740;7.606;2023-03-21T09:44:42;12.40;99.90
7502;DHT22;3792;47.740;7.606;2023-03-21T09:47:18;12.70;99.90
7502;DHT22;3792;47.740;7.606;2023-03-21T09:49:49;12.80;99.90
7502;DHT22;3792;47.740;7.606;2023-03-21T09:52:22;13.00;99.90
7502;DHT22;3792;47.740;7.606;2023-03-21T09:54:52;13.20;99.90
7502;DHT22;3792;47.740;7.606;2023-03-21T09:57:28;13.20;99.90
7502;DHT22;3792;47.740;7.606;2023-03-21T10:00:02;13.40;99.90
7502;DHT22;3792;47.740;7.606;2023-03-21T10:02:36;13.60;99.90
7502;DHT22;3792;47.740;7.606;2023-03-21T10:05:11;13.90;99.90
7502;DHT22;3792;47.740;7.606;2023-03-21T10:07:41;14.00;99.90
7502;DHT22;3792;47.740;7.606;2023-03-21T10:10:15;14.20;99.90
7502;DHT22;3792;47.740;7.606;2023-03-21T10:12:44;14.50;99.90
7502;DHT22;3792;47.740;7.606;2023-03-21T10:15:16;14.70;99.90
7502;DHT22;3792;47.740;7.606;2023-03-21T10:17:50;14.80;99.90
7502;DHT22;3792;47.740;7.606;2023-03-21T10:20:22;15.00;99.90
7502;DHT22;3792;47.740;7.606;2023-03-21T10:22:51;15.20;99.90
7502;DHT22;3792;47.740;7.606;2023-03-21T10:25:23;15.30;99.90
7502;DHT22;3792;47.740;7.606;2023-03-21T10:27:51;15.30;99.90
7502;DHT22;3792;47.740;7.606;2023-03-21T10:30:27;15.30;99.90
7502;DHT22;3792;47.740;7.606;2023-03-21T10:32:57;15.50;99.90
7502;DHT22;3792;47.740;7.606;2023-03-21T10:35:27;15.70;99.90
7502;DHT22;3792;47.740;7.606;2023-03-21T10:37:56;15.90;99.70
7502;DHT22;3792;47.740;7.606;2023-03-21T10:40:24;16.00;99.30
7502;DHT22;3792;47.740;7.606;2023-03-21T10:42:53;16.20;98.30
7502;DHT22;3792;47.740;7.606;2023-03-21T10:45:22;16.10;97.00
7502;DHT22;3792;47.740;7.606;2023-03-21T10:47:50;16.20;97.60
7502;DHT22;3792;47.740;7.606;2023-03-21T10:50:19;16.20;98.00
7502;DHT22;3792;47.740;7.606;2023-03-21T10:52:54;16.30;98.40
7502;DHT22;3792;47.740;7.606;2023-03-21T10:55:27;16.30;98.00
7502;DHT22;3792;47.740;7.606;2023-03-21T10:57:59;16.40;98.20
7502;DHT22;3792;47.740;7.606;2023-03-21T11:00:32;16.50;99.20
7502;DHT22;3792;47.740;7.606;2023-03-21T11:03:00;16.60;98.50
7502;DHT22;3792;47.740;7.606;2023-03-21T11:05:34;16.80;98.50
7502;DHT22;3792;47.740;7.606;2023-03-21T11:08:04;16.80;97.70
7502;DHT22;3792;47.740;7.606;2023-03-21T11:10:34;16.80;97.90
7502;DHT22;3792;47.740;7.606;2023-03-21T11:13:07;16.80;97.60
7502;DHT22;3792;47.740;7.606;2023-03-21T11:15:50;16.90;97.80
7502;DHT22;3792;47.740;7.606;2023-03-21T11:18:20;17.00;97.50
7502;DHT22;3792;47.740;7.606;2023-03-21T11:20:51;17.00;97.80
7502;DHT22;3792;47.740;7.606;2023-03-21T11:23:19;17.00;96.30
7502;DHT22;3792;47.740;7.606;2023-03-21T11:25:49;17.00;96.30
7502;DHT22;3792;47.740;7.606;2023-03-21T11:28:18;16.90;95.70
7502;DHT22;3792;47.740;7.606;2023-03-21T11:30:52;17.00;97.20
7502;DHT22;3792;47.740;7.606;2023-03-21T11:33:21;17.00;95.80
7502;DHT22;3792;47.740;7.606;2023-03-21T11:36:03;17.10;96.30
7502;DHT22;3792;47.740;7.606;2023-03-21T11:38:34;17.10;95.30
7502;DHT22;3792;47.740;7.606;2023-03-21T11:41:05;17.10;95.10
7502;DHT22;3792;47.740;7.606;2023-03-21T11:43:34;17.10;94.50
7502;DHT22;3792;47.740;7.606;2023-03-21T11:46:06;16.90;94.40
7502;DHT22;3792;47.740;7.606;2023-03-21T11:48:37;16.80;94.10
7502;DHT22;3792;47.740;7.606;2023-03-21T11:51:11;16.90;94.50
7502;DHT22;3792;47.740;7.606;2023-03-21T11:53:44;17.10;95.90
7502;DHT22;3792;47.740;7.606;2023-03-21T11:56:28;17.40;96.60
7502;DHT22;3792;47.740;7.606;2023-03-21T11:59:12;17.80;96.00
7502;DHT22;3792;47.740;7.606;2023-03-21T12:01:52;18.30;95.70
7502;DHT22;3792;47.740;7.606;2023-03-21T12:04:39;18.30;94.40
7502;DHT22;3792;47.740;7.606;2023-03-21T12:10:31;17.80;94.20
7502;DHT22;3792;47.740;7.606;2023-03-21T12:13:27;17.50;94.60
7502;DHT22;3792;47.740;7.606;2023-03-21T12:16:06;17.30;95.00
7502;DHT22;3792;47.740;7.606;2023-03-21T12:18:49;17.10;95.00
7502;DHT22;3792;47.740;7.606;2023-03-21T12:21:25;17.00;95.70
7502;DHT22;3792;47.740;7.606;2023-03-21T12:24:02;16.90;96.30
7502;DHT22;3792;47.740;7.606;2023-03-21T12:26:39;16.90;96.10
7502;DHT22;3792;47.740;7.606;2023-03-21T12:32:13;16.90;95.80
7502;DHT22;3792;47.740;7.606;2023-03-21T12:35:16;16.60;96.10
7502;DHT22;3792;47.740;7.606;2023-03-21T12:37:52;16.50;96.60
7502;DHT22;3792;47.740;7.606;2023-03-21T12:40:35;16.60;97.10
7502;DHT22;3792;47.740;7.606;2023-03-21T12:43:26;16.80;96.50
7502;DHT22;3792;47.740;7.606;2023-03-21T12:45:58;16.90;96.60
7502;DHT22;3792;47.740;7.606;2023-03-21T12:48:35;17.20;97.00
7502;DHT22;3792;47.740;7.606;2023-03-21T12:51:06;17.30;96.30
7502;DHT22;3792;47.740;7.606;2023-03-21T12:53:53;17.60;96.00
7502;DHT22;3792;47.740;7.606;2023-03-21T12:56:26;17.70;94.80
7502;DHT22;3792;47.740;7.606;2023-03-21T12:58:58;17.70;95.70
7502;DHT22;3792;47.740;7.606;2023-03-21T13:01:27;17.90;95.00
7502;DHT22;3792;47.740;7.606;2023-03-21T13:04:25;18.10;94.80
7502;DHT22;3792;47.740;7.606;2023-03-21T13:07:00;18.20;94.50
7502;DHT22;3792;47.740;7.606;2023-03-21T13:09:33;18.10;94.60
7502;DHT22;3792;47.740;7.606;2023-03-21T13:12:07;18.20;94.50
7502;DHT22;3792;47.740;7.606;2023-03-21T13:14:40;18.30;94.50
7502;DHT22;3792;47.740;7.606;2023-03-21T13:17:18;18.30;94.80
7502;DHT22;3792;47.740;7.606;2023-03-21T13:19:52;18.10;94.00
7502;DHT22;3792;47.740;7.606;2023-03-21T13:22:25;18.00;94.20
7502;DHT22;3792;47.740;7.606;2023-03-21T13:24:57;17.80;94.30
7502;DHT22;3792;47.740;7.606;2023-03-21T13:27:27;17.70;94.00
7502;DHT22;3792;47.740;7.606;2023-03-21T13:30:01;17.60;94.30
7502;DHT22;3792;47.740;7.606;2023-03-21T13:32:34;17.50;94.70
7502;DHT22;3792;47.740;7.606;2023-03-21T13:35:12;17.50;95.40
7502;DHT22;3792;47.740;7.606;2023-03-21T13:37:42;17.50;94.80
7502;DHT22;3792;47.740;7.606;2023-03-21T13:40:21;17.50;94.40
7502;DHT22;3792;47.740;7.606;2023-03-21T13:42:51;17.60;95.00
7502;DHT22;3792;47.740;7.606;2023-03-21T13:45:28;17.80;95.50
7502;DHT22;3792;47.740;7.606;2023-03-21T13:47:59;18.00;94.60
7502;DHT22;3792;47.740;7.606;2023-03-21T13:50:29;18.20;94.60
7502;DHT22;3792;47.740;7.606;2023-03-21T13:53:20;18.30;94.20
7502;DHT22;3792;47.740;7.606;2023-03-21T13:58:51;18.80;94.00
7502;DHT22;3792;47.740;7.606;2023-03-21T14:01:32;19.00;94.20
7502;DHT22;3792;47.740;7.606;2023-03-21T14:04:06;19.50;93.70
7502;DHT22;3792;47.740;7.606;2023-03-21T14:06:41;19.60;92.80
7502;DHT22;3792;47.740;7.606;2023-03-21T14:09:17;19.50;92.30
7502;DHT22;3792;47.740;7.606;2023-03-21T14:11:46;19.30;92.00
7502;DHT22;3792;47.740;7.606;2023-03-21T14:14:14;19.10;92.00
7502;DHT22;3792;47.740;7.606;2023-03-21T14:16:43;18.90;92.20
7502;DHT22;3792;47.740;7.606;2023-03-21T14:19:12;18.80;93.30
7502;DHT22;3792;47.740;7.606;2023-03-21T14:21:47;18.50;92.90
7502;DHT22;3792;47.740;7.606;2023-03-21T14:24:16;18.40;92.90
7502;DHT22;3792;47.740;7.606;2023-03-21T14:26:46;18.10;93.70
7502;DHT22;3792;47.740;7.606;2023-03-21T14:29:19;18.00;93.70
7502;DHT22;3792;47.740;7.606;2023-03-21T14:31:46;17.80;93.40
7502;DHT22;3792;47.740;7.606;2023-03-21T14:34:15;17.70;93.80
7502;DHT22;3792;47.740;7.606;2023-03-21T14:36:43;17.60;94.00
7502;DHT22;3792;47.740;7.606;2023-03-21T14:39:14;17.50;93.90
7502;DHT22;3792;47.740;7.606;2023-03-21T14:41:45;17.50;94.50
7502;DHT22;3792;47.740;7.606;2023-03-21T14:44:21;17.50;94.60
7502;DHT22;3792;47.740;7.606;2023-03-21T14:47:00;17.50;93.40
7502;DHT22;3792;47.740;7.606;2023-03-21T14:49:30;17.50;93.80
7502;DHT22;3792;47.740;7.606;2023-03-21T14:51:59;17.40;93.90
7502;DHT22;3792;47.740;7.606;2023-03-21T14:54:27;17.40;93.90
7502;DHT22;3792;47.740;7.606;2023-03-21T14:56:57;17.30;94.10
7502;DHT22;3792;47.740;7.606;2023-03-21T14:59:28;17.30;94.20
7502;DHT22;3792;47.740;7.606;2023-03-21T15:01:59;17.40;94.50
7502;DHT22;3792;47.740;7.606;2023-03-21T15:04:30;17.40;94.30
7502;DHT22;3792;47.740;7.606;2023-03-21T15:07:00;17.50;94.30
7502;DHT22;3792;47.740;7.606;2023-03-21T15:09:31;17.50;94.40
7502;DHT22;3792;47.740;7.606;2023-03-21T15:11:59;17.50;94.60
7502;DHT22;3792;47.740;7.606;2023-03-21T15:14:30;17.50;94.60
7502;DHT22;3792;47.740;7.606;2023-03-21T15:16:59;17.40;94.80
7502;DHT22;3792;47.740;7.606;2023-03-21T15:19:31;17.30;94.70
7502;DHT22;3792;47.740;7.606;2023-03-21T15:22:04;17.30;94.70
7502;DHT22;3792;47.740;7.606;2023-03-21T15:24:35;17.20;94.80
7502;DHT22;3792;47.740;7.606;2023-03-21T15:27:06;17.20;94.70
7502;DHT22;3792;47.740;7.606;2023-03-21T15:29:34;17.20;94.80
7502;DHT22;3792;47.740;7.606;2023-03-21T15:32:04;17.20;95.10
7502;DHT22;3792;47.740;7.606;2023-03-21T15:34:35;17.10;94.80
7502;DHT22;3792;47.740;7.606;2023-03-21T15:37:05;17.10;94.90
7502;DHT22;3792;47.740;7.606;2023-03-21T15:39:33;16.90;94.60
7502;DHT22;3792;47.740;7.606;2023-03-21T15:42:03;16.90;95.20
7502;DHT22;3792;47.740;7.606;2023-03-21T15:44:32;16.90;95.10
7502;DHT22;3792;47.740;7.606;2023-03-21T15:46:59;16.80;95.20
7502;DHT22;3792;47.740;7.606;2023-03-21T15:49:29;16.80;95.10
7502;DHT22;3792;47.740;7.606;2023-03-21T15:52:11;16.80;95.20
7502;DHT22;3792;47.740;7.606;2023-03-21T15:54:42;16.70;95.20
7502;DHT22;3792;47.740;7.606;2023-03-21T15:57:19;16.70;95.60
7502;DHT22;3792;47.740;7.606;2023-03-21T15:59:48;16.60;95.30
7502;DHT22;3792;47.740;7.606;2023-03-21T16:02:16;16.60;95.70
7502;DHT22;3792;47.740;7.606;2023-03-21T16:04:55;16.60;96.30
7502;DHT22;3792;47.740;7.606;2023-03-21T16:07:24;16.50;96.40
7502;DHT22;3792;47.740;7.606;2023-03-21T16:09:57;16.50;96.60
7502;DHT22;3792;47.740;7.606;2023-03-21T16:12:25;16.40;96.70
7502;DHT22;3792;47.740;7.606;2023-03-21T16:14:52;16.40;96.90
7502;DHT22;3792;47.740;7.606;2023-03-21T16:17:31;16.30;97.00
7502;DHT22;3792;47.740;7.606;2023-03-21T16:20:03;16.30;97.30
7502;DHT22;3792;47.740;7.606;2023-03-21T16:22:32;16.30;97.20
7502;DHT22;3792;47.740;7.606;2023-03-21T16:24:59;16.20;97.20
7502;DHT22;3792;47.740;7.606;2023-03-21T16:27:26;16.20;97.30
7502;DHT22;3792;47.740;7.606;2023-03-21T16:29:53;16.10;97.30
7502;DHT22;3792;47.740;7.606;2023-03-21T16:32:20;16.10;97.20
7502;DHT22;3792;47.740;7.606;2023-03-21T16:34:48;16.00;97.40
7502;DHT22;3792;47.740;7.606;2023-03-21T16:37:18;16.00;97.40
7502;DHT22;3792;47.740;7.606;2023-03-21T16:39:47;16.00;97.40
7502;DHT22;3792;47.740;7.606;2023-03-21T16:42:14;15.90;97.70
7502;DHT22;3792;47.740;7.606;2023-03-21T16:44:41;15.90;97.80